AKDT,Max TemperatureF,Mean TemperatureF,Min TemperatureF,Max Dew PointF,MeanDew PointF,Min DewpointF,Max Humidity, Mean Humidity, Min Humidity, Max Sea Level PressureIn, Mean Sea Level PressureIn, Min Sea Level PressureIn, Max VisibilityMiles, Mean VisibilityMiles, Min VisibilityMiles, Max Wind SpeedMPH, Mean Wind SpeedMPH, Max Gust SpeedMPH,PrecipitationIn, CloudCover, Events, WindDirDegrees
2012-6-1,55,49,42,46,42,40,96,80,63,29.88,29.68,29.55,10,9,5,15,9,17,T,8,Rain,193
2012-6-2,53,49,44,44,42,40,92,82,71,29.95,29.85,29.73,10,10,7,16,12,21,0.01,7,Rain,135
2012-6-3,58,50,41,45,41,37,100,78,55,30.04,29.99,29.96,10,10,10,15,6,16,0.01,6,Rain,243
2012-6-4,62,54,45,45,43,40,93,72,51,30.06,29.98,29.88,10,10,10,16,7,18,T,5,Rain,234
2012-6-5,62,52,41,49,44,39,96,72,48,30.00,29.86,29.79,10,10,10,17,6,22,0.04,7,Rain,122
2012-6-6,60,54,48,47,44,41,86,70,53,30.06,29.97,29.87,10,10,10,17,9,21,T,8,Rain,152
2012-6-7,53,51,48,50,47,45,93,88,83,29.86,29.70,29.57,10,9,6,17,7,23,0.29,8,Rain,214
2012-6-8,49,48,47,47,46,45,93,90,86,30.16,29.98,29.72,10,8,5,23,15,28,0.70,8,Rain,105
2012-6-9,58,50,42,46,44,40,100,79,57,30.16,30.11,30.03,10,10,10,10,4,13,0.01,6,Rain,214
2012-6-10,54,48,41,47,45,40,100,89,77,30.04,30.01,29.96,10,10,10,18,6,22,0.07,8,Rain,102
2012-6-11,53,51,48,48,45,43,100,86,71,30.04,29.97,29.89,10,9,5,14,3,18,0.10,8,Rain,342
2012-6-12,52,48,44,45,43,39,93,80,66,30.04,30.03,30.02,10,10,10,10,4,17,0.11,8,Rain,79
2012-6-13,50,47,44,45,43,41,92,85,77,30.09,30.06,30.03,10,10,6,15,6,17,0.04,8,Rain,86
2012-6-14,48,46,43,44,43,42,100,90,80,30.11,30.09,30.07,10,10,7,14,6,22,0.24,8,Rain,94
2012-6-15,52,48,43,46,44,42,100,86,71,30.09,29.86,29.47,10,10,8,9,4,13,0.18,8,Rain,195
2012-6-16,54,50,46,50,48,45,100,92,83,29.56,29.50,29.42,10,7,2,22,10,26,0.53,8,Rain,96
2012-6-17,55,52,49,51,50,48,100,95,89,29.85,29.68,29.56,10,8,3,16,7,20,0.22,8,Rain,107
2012-6-18,59,54,49,50,48,46,93,78,62,29.99,29.92,29.86,10,10,9,10,2,14,T,8,Rain,287
2012-6-19,57,54,50,52,49,46,93,83,72,30.12,30.06,30.00,10,10,3,12,2,14,T,8,Rain,94
2012-6-20,62,56,49,52,49,46,100,82,64,30.13,30.08,29.99,10,8,2,13,5,16,0.06,7,Rain,209
2012-6-21,61,53,44,51,48,45,100,84,67,30.03,29.98,29.93,10,10,1,22,4,30,0.03,6,Rain,242
2012-6-22,74,59,44,56,50,43,93,71,49,29.98,29.88,29.81,10,10,10,13,4,14,0.00,5,,247
2012-6-23,82,66,50,56,52,48,93,65,36,29.86,29.78,29.73,10,10,10,14,4,14,0.00,1,,245
2012-6-24,79,65,50,52,50,48,96,67,38,29.89,29.78,29.71,10,10,10,28,10,37,T,4,,153
2012-6-25,54,53,51,51,49,48,100,92,83,29.89,29.85,29.81,10,8,6,21,16,25,T,8,Rain,116
2012-6-26,51,50,49,48,47,47,93,88,83,29.81,29.77,29.75,10,9,6,22,15,29,0.50,8,Rain,114
2012-6-27,55,52,48,49,47,45,100,89,77,29.85,29.82,29.78,10,10,4,15,7,17,0.06,8,Rain,101
2012-6-28,54,51,48,52,49,48,100,95,89,29.84,29.79,29.76,10,8,2,9,2,12,0.13,8,Rain,136
2012-6-29,50,49,47,48,47,46,100,93,86,29.94,29.87,29.77,10,7,2,17,8,23,1.82,8,Rain,100
2012-6-30,49,48,46,47,46,45,100,93,86,29.93,29.92,29.90,10,7,2,14,7,17,0.63,8,Rain,93